RS-0011 weather

Surčin Airstrip
Surčin, Srem, Serbia

Public forecast

Using degrees Celsius for public forecast. Weather courtesy of forecast.io.

METAR (pilot weather report)

Closest report is Belgrade Nikola Tesla Airport, 3.0 nm (5.5 km) N. Retrieved 2019/06/24 08:30 UTC (28 minutes ago):

LYBE 240830Z 32004KT 280V340 9999 SCT010 BKN026 21/19 Q1017 NOSIG

TAF (pilot weather forecast)

Closest forecast is Belgrade Nikola Tesla Airport, 3.0 nm (5.5 km) N. Retrieved 2019/06/24 06:27 UTC (3 hours ago):

TAF LYBE 240500Z 2406/2506 22005KT 3000 BR BKN006 TX27/2413Z TN17/2503Z BECMG 2406/2407 6000 NSW SCT010 BKN020 TEMPO 2416/2418 VRB15KT 5000 TSRA SCT027CB BKN030